Astra — PB4187 — position and weather

sailwx.info

Track history (hours):
 
Tides and Currents Weather Stations Pressure Air Temp Water Temp Dewpoint Dewpoint Depression Visibility Wind Speed Wind Dir Waves Ship Positions

Astra

Last reported at 2014-Sep-03 04:33 UTC. Time now 2014-Sep-03 04:41 UTC.
Position N 47°33' E 007°38'.

Length 110 m.

Type: Tanker. MMSI: 244650752.

Date/timePositionNaut miles runAvg speedWind from/ knotsBaromVisibWave heightAir tempDewpointWater temp
2014-Sep-03 04:33N 47°33' E 007°38'0 0.0
2014-Sep-03 03:33N 47°33' E 007°38'0 0.0
2014-Sep-03 02:33N 47°33' E 007°38'0 0.0
2014-Sep-03 01:33N 47°33' E 007°38'0 0.0
2014-Sep-03 00:33N 47°33' E 007°38'0 0.0
2014-Sep-02 23:34N 47°33' E 007°38'0 0.0
2014-Sep-02 22:34N 47°33' E 007°38'0 0.0
2014-Sep-02 21:34N 47°33' E 007°38'0 0.0
2014-Sep-02 20:34N 47°33' E 007°38'0 0.0
2014-Sep-02 19:34N 47°33' E 007°38'0 0.0
2014-Sep-02 18:34N 47°33' E 007°38'0 0.0
2014-Sep-02 17:33N 47°33' E 007°38'0 0.0
2014-Sep-02 16:33N 47°33' E 007°38'1 1.5
2014-Sep-02 15:33N 47°33' E 007°36'3 2.8
2014-Sep-02 14:33N 47°36' E 007°36'4 4.0
2014-Sep-02 13:32N 47°39' E 007°32'63 3.8
2014-Sep-01 21:12N 48°40' E 007°54'2 3.3
2014-Sep-01 20:30N 48°42' E 007°56'4 4.6
2014-Sep-01 19:32N 48°46' E 008°00'6 4.7
2014-Sep-01 18:12N 48°50' E 008°07'3 4.3
2014-Sep-01 17:33N 48°53' E 008°08'4 3.8
2014-Sep-01 16:33N 48°56' E 008°11'4 3.6
2014-Sep-01 15:33N 48°58' E 008°15'4 3.9
2014-Sep-01 14:33N 49°02' E 008°18'4 4.0
2014-Sep-01 13:33N 49°05' E 008°21'4 4.1
2014-Sep-01 12:33N 49°09' E 008°22'4 4.0
2014-Sep-01 11:33N 49°13' E 008°23'4 4.4
2014-Sep-01 10:33N 49°17' E 008°27'3 3.2
2014-Sep-01 09:33N 49°20' E 008°27'110 3.6
2014-Aug-31 03:08N 50°54' E 006°59'19 3.4
2014-Aug-30 21:33N 51°11' E 006°47'3 3.4
2014-Aug-30 20:33N 51°13' E 006°43'2 2.0
2014-Aug-30 19:33N 51°15' E 006°45'49 3.2
2014-Aug-30 04:26N 51°51' E 005°52'4 5.0
2014-Aug-30 03:33N 51°53' E 005°45'6 5.5
2014-Aug-30 02:33N 51°54' E 005°36'5 5.4
2014-Aug-30 01:33N 51°53' E 005°28'4 4.3
2014-Aug-30 00:33N 51°57' E 005°23'4 3.7
2014-Aug-29 23:33N 51°58' E 005°18'8 7.8
2014-Aug-29 22:33N 52°02' E 005°07'14 7.1
2014-Aug-29 20:33N 52°16' E 005°01'7 6.8
2014-Aug-29 19:34N 52°22' E 004°57'6 6.4
2014-Aug-29 18:34N 52°25' E 004°48'2 2.1
2014-Aug-29 17:33N 52°25' E 004°45'0 0.0
2014-Aug-29 16:33N 52°25' E 004°45'0 0.0
2014-Aug-29 15:33N 52°25' E 004°45'0 0.0
2014-Aug-29 14:33N 52°25' E 004°45'0 0.0
2014-Aug-29 13:33N 52°25' E 004°45'0 0.0
2014-Aug-29 12:33N 52°25' E 004°45'0 0.0
2014-Aug-29 11:33N 52°25' E 004°45'0 0.0
2014-Aug-29 10:33N 52°25' E 004°45'0 0.0
2014-Aug-29 09:33N 52°25' E 004°45'0 0.0
2014-Aug-29 08:33N 52°25' E 004°45'0 0.0
2014-Aug-29 07:33N 52°25' E 004°45'2 2.0
2014-Aug-29 06:34N 52°25' E 004°48'4 3.7
2014-Aug-29 05:33N 52°24' E 004°53'0 0.0
2014-Aug-29 04:30N 52°24' E 004°53'0 0.0
2014-Aug-29 03:33N 52°24' E 004°53'0 0.0
2014-Aug-29 02:33N 52°24' E 004°53'0 0.0
2014-Aug-29 01:33N 52°24' E 004°53'0 0.0
2014-Aug-29 00:33N 52°24' E 004°53'0 0.0
2014-Aug-28 23:33N 52°24' E 004°53'0 0.0
2014-Aug-28 22:33N 52°24' E 004°53'0 0.0
2014-Aug-28 21:33N 52°24' E 004°53'0 0.0
2014-Aug-28 20:33N 52°24' E 004°53'0 0.0
2014-Aug-28 19:33N 52°24' E 004°53'0 0.0
2014-Aug-28 18:33N 52°24' E 004°53'0 0.0
2014-Aug-28 17:33N 52°24' E 004°53'0 0.0
2014-Aug-28 16:33N 52°24' E 004°53'0 0.0
2014-Aug-28 15:33N 52°24' E 004°53'0 0.0
2014-Aug-28 14:33N 52°24' E 004°53'0 0.0
2014-Aug-28 13:33N 52°24' E 004°53'0 0.0
2014-Aug-28 12:33N 52°24' E 004°53'5 4.6
2014-Aug-28 11:33N 52°26' E 004°46'1 1.1
2014-Aug-28 10:33N 52°25' E 004°47'0 0.0
2014-Aug-28 09:34N 52°25' E 004°47'0 0.0
2014-Aug-28 08:34N 52°25' E 004°47'0 0.0
2014-Aug-28 07:34N 52°25' E 004°47'0 0.0
2014-Aug-28 06:34N 52°25' E 004°47'0 0.0
2014-Aug-28 05:34N 52°25' E 004°47'0 0.0
2014-Aug-28 04:34N 52°25' E 004°47'0 0.0
2014-Aug-28 03:33N 52°25' E 004°47'0 0.0
2014-Aug-28 02:33N 52°25' E 004°47'0 0.0
2014-Aug-28 01:34N 52°25' E 004°47'0 0.0
2014-Aug-28 00:33N 52°25' E 004°47'0 0.0
2014-Aug-27 23:34N 52°25' E 004°47'0 0.0
2014-Aug-27 22:33N 52°25' E 004°47'0 0.0
2014-Aug-27 21:33N 52°25' E 004°47'0 0.0
2014-Aug-27 20:34N 52°25' E 004°47'0 0.0
2014-Aug-27 19:33N 52°25' E 004°47'1 1.0
2014-Aug-27 18:34N 52°26' E 004°46'7 6.8
2014-Aug-27 17:33N 52°23' E 004°57'0 0.1
2014-Aug-27 16:34N 52°23' E 004°57'7 6.7
2014-Aug-27 15:33N 52°17' E 005°01'8 7.8
2014-Aug-27 14:33N 52°09' E 005°00'7 6.8
2014-Aug-27 13:33N 52°03' E 005°06'1 1.3
2014-Aug-27 12:33N 52°02' E 005°07'3 2.7
2014-Aug-27 11:33N 52°01' E 005°10'6 5.9
2014-Aug-27 10:33N 51°58' E 005°19'19 6.1
2014-Aug-27 07:27N 51°53' E 005°48'17 7.6
2014-Aug-27 05:09N 51°49' E 006°16'12 7.5
2014-Aug-27 03:33N 51°40' E 006°29'7 6.7
2014-Aug-27 02:33N 51°35' E 006°36'17 2.8
2014-Aug-26 20:23N 51°32' E 007°03'0 0.0
2014-Aug-26 19:29N 51°32' E 007°03'0 0.0
2014-Aug-26 17:22N 51°32' E 007°03'0 0.0
2014-Aug-26 16:22N 51°32' E 007°03'0 0.0
2014-Aug-26 15:27N 51°32' E 007°03'0 0.0
2014-Aug-26 14:30N 51°32' E 007°03'0 0.0
2014-Aug-26 13:31N 51°32' E 007°03'0 0.0
2014-Aug-26 12:33N 51°32' E 007°03'0 0.0
2014-Aug-26 11:33N 51°32' E 007°03'0 0.2
2014-Aug-26 10:33N 51°32' E 007°03'0 0.4
2014-Aug-26 09:34N 51°32' E 007°03'0 0.0
2014-Aug-26 08:34N 51°32' E 007°03'0 0.0
2014-Aug-26 07:34N 51°32' E 007°03'0 0.4
2014-Aug-26 06:33N 51°32' E 007°03'0 0.0
2014-Aug-26 05:32N 51°32' E 007°03'0 0.0
2014-Aug-26 04:33N 51°32' E 007°03'0 0.0
2014-Aug-26 03:33N 51°32' E 007°03'0 0.0
2014-Aug-26 02:33N 51°32' E 007°03'0 0.0
2014-Aug-26 01:33N 51°32' E 007°03'0 0.0
2014-Aug-26 00:33N 51°32' E 007°03'0 0.0
2014-Aug-25 23:33N 51°32' E 007°03'0 0.0
2014-Aug-25 22:33N 51°32' E 007°03'0 0.0
2014-Aug-25 21:33N 51°32' E 007°03'0 0.0
2014-Aug-25 20:33N 51°32' E 007°03'0 0.0
2014-Aug-25 19:33N 51°32' E 007°03'0 0.1
2014-Aug-25 18:33N 51°32' E 007°03'0 0.0
2014-Aug-25 17:34N 51°32' E 007°03'0 0.0
2014-Aug-25 16:33N 51°32' E 007°03'0 0.0
2014-Aug-25 15:33N 51°32' E 007°03'0 0.0
2014-Aug-25 14:33N 51°32' E 007°03'0 0.0
2014-Aug-25 13:33N 51°32' E 007°03'0 0.0
2014-Aug-25 12:33N 51°32' E 007°03'0 0.0
2014-Aug-25 11:31N 51°32' E 007°03'0 0.0
2014-Aug-25 10:33N 51°32' E 007°03'0 0.0
2014-Aug-25 09:33N 51°32' E 007°03'  
Track history (hours):
 
Tides and Currents Weather Stations Pressure Air Temp Water Temp Dewpoint Dewpoint Depression Visibility Wind Speed Wind Dir Waves Ship Positions

Astra

Last reported at 2014-Sep-03 04:33 UTC. Time now 2014-Sep-03 04:41 UTC.
Position N 47°33' E 007°38'.

Length 110 m.

Type: Tanker. MMSI: 244650752.

Date/timePositionNaut miles runAvg speedWind from/ knotsBaromVisibWave heightAir tempDewpointWater temp
2014-Sep-03 04:33N 47°33' E 007°38'0 0.0
2014-Sep-03 03:33N 47°33' E 007°38'0 0.0
2014-Sep-03 02:33N 47°33' E 007°38'0 0.0
2014-Sep-03 01:33N 47°33' E 007°38'0 0.0
2014-Sep-03 00:33N 47°33' E 007°38'0 0.0
2014-Sep-02 23:34N 47°33' E 007°38'0 0.0
2014-Sep-02 22:34N 47°33' E 007°38'0 0.0
2014-Sep-02 21:34N 47°33' E 007°38'0 0.0
2014-Sep-02 20:34N 47°33' E 007°38'0 0.0
2014-Sep-02 19:34N 47°33' E 007°38'0 0.0
2014-Sep-02 18:34N 47°33' E 007°38'0 0.0
2014-Sep-02 17:33N 47°33' E 007°38'0 0.0
2014-Sep-02 16:33N 47°33' E 007°38'1 1.5
2014-Sep-02 15:33N 47°33' E 007°36'3 2.8
2014-Sep-02 14:33N 47°36' E 007°36'4 4.0
2014-Sep-02 13:32N 47°39' E 007°32'63 3.8
2014-Sep-01 21:12N 48°40' E 007°54'2 3.3
2014-Sep-01 20:30N 48°42' E 007°56'4 4.6
2014-Sep-01 19:32N 48°46' E 008°00'6 4.7
2014-Sep-01 18:12N 48°50' E 008°07'3 4.3
2014-Sep-01 17:33N 48°53' E 008°08'4 3.8
2014-Sep-01 16:33N 48°56' E 008°11'4 3.6
2014-Sep-01 15:33N 48°58' E 008°15'4 3.9
2014-Sep-01 14:33N 49°02' E 008°18'4 4.0
2014-Sep-01 13:33N 49°05' E 008°21'4 4.1
2014-Sep-01 12:33N 49°09' E 008°22'4 4.0
2014-Sep-01 11:33N 49°13' E 008°23'4 4.4
2014-Sep-01 10:33N 49°17' E 008°27'3 3.2
2014-Sep-01 09:33N 49°20' E 008°27'110 3.6
2014-Aug-31 03:08N 50°54' E 006°59'19 3.4
2014-Aug-30 21:33N 51°11' E 006°47'3 3.4
2014-Aug-30 20:33N 51°13' E 006°43'2 2.0
2014-Aug-30 19:33N 51°15' E 006°45'49 3.2
2014-Aug-30 04:26N 51°51' E 005°52'4 5.0
2014-Aug-30 03:33N 51°53' E 005°45'6 5.5
2014-Aug-30 02:33N 51°54' E 005°36'5 5.4
2014-Aug-30 01:33N 51°53' E 005°28'4 4.3
2014-Aug-30 00:33N 51°57' E 005°23'4 3.7
2014-Aug-29 23:33N 51°58' E 005°18'8 7.8
2014-Aug-29 22:33N 52°02' E 005°07'14 7.1
2014-Aug-29 20:33N 52°16' E 005°01'7 6.8
2014-Aug-29 19:34N 52°22' E 004°57'6 6.4
2014-Aug-29 18:34N 52°25' E 004°48'2 2.1
2014-Aug-29 17:33N 52°25' E 004°45'0 0.0
2014-Aug-29 16:33N 52°25' E 004°45'0 0.0
2014-Aug-29 15:33N 52°25' E 004°45'0 0.0
2014-Aug-29 14:33N 52°25' E 004°45'0 0.0
2014-Aug-29 13:33N 52°25' E 004°45'0 0.0
2014-Aug-29 12:33N 52°25' E 004°45'0 0.0
2014-Aug-29 11:33N 52°25' E 004°45'0 0.0
2014-Aug-29 10:33N 52°25' E 004°45'0 0.0
2014-Aug-29 09:33N 52°25' E 004°45'0 0.0
2014-Aug-29 08:33N 52°25' E 004°45'0 0.0
2014-Aug-29 07:33N 52°25' E 004°45'2 2.0
2014-Aug-29 06:34N 52°25' E 004°48'4 3.7
2014-Aug-29 05:33N 52°24' E 004°53'0 0.0
2014-Aug-29 04:30N 52°24' E 004°53'0 0.0
2014-Aug-29 03:33N 52°24' E 004°53'0 0.0
2014-Aug-29 02:33N 52°24' E 004°53'0 0.0
2014-Aug-29 01:33N 52°24' E 004°53'0 0.0
2014-Aug-29 00:33N 52°24' E 004°53'0 0.0
2014-Aug-28 23:33N 52°24' E 004°53'0 0.0
2014-Aug-28 22:33N 52°24' E 004°53'0 0.0
2014-Aug-28 21:33N 52°24' E 004°53'0 0.0
2014-Aug-28 20:33N 52°24' E 004°53'0 0.0
2014-Aug-28 19:33N 52°24' E 004°53'0 0.0
2014-Aug-28 18:33N 52°24' E 004°53'0 0.0
2014-Aug-28 17:33N 52°24' E 004°53'0 0.0
2014-Aug-28 16:33N 52°24' E 004°53'0 0.0
2014-Aug-28 15:33N 52°24' E 004°53'0 0.0
2014-Aug-28 14:33N 52°24' E 004°53'0 0.0
2014-Aug-28 13:33N 52°24' E 004°53'0 0.0
2014-Aug-28 12:33N 52°24' E 004°53'5 4.6
2014-Aug-28 11:33N 52°26' E 004°46'1 1.1
2014-Aug-28 10:33N 52°25' E 004°47'0 0.0
2014-Aug-28 09:34N 52°25' E 004°47'0 0.0
2014-Aug-28 08:34N 52°25' E 004°47'0 0.0
2014-Aug-28 07:34N 52°25' E 004°47'0 0.0
2014-Aug-28 06:34N 52°25' E 004°47'0 0.0
2014-Aug-28 05:34N 52°25' E 004°47'0 0.0
2014-Aug-28 04:34N 52°25' E 004°47'0 0.0
2014-Aug-28 03:33N 52°25' E 004°47'0 0.0
2014-Aug-28 02:33N 52°25' E 004°47'0 0.0
2014-Aug-28 01:34N 52°25' E 004°47'0 0.0
2014-Aug-28 00:33N 52°25' E 004°47'0 0.0
2014-Aug-27 23:34N 52°25' E 004°47'0 0.0
2014-Aug-27 22:33N 52°25' E 004°47'0 0.0
2014-Aug-27 21:33N 52°25' E 004°47'0 0.0
2014-Aug-27 20:34N 52°25' E 004°47'0 0.0
2014-Aug-27 19:33N 52°25' E 004°47'1 1.0
2014-Aug-27 18:34N 52°26' E 004°46'7 6.8
2014-Aug-27 17:33N 52°23' E 004°57'0 0.1
2014-Aug-27 16:34N 52°23' E 004°57'7 6.7
2014-Aug-27 15:33N 52°17' E 005°01'8 7.8
2014-Aug-27 14:33N 52°09' E 005°00'7 6.8
2014-Aug-27 13:33N 52°03' E 005°06'1 1.3
2014-Aug-27 12:33N 52°02' E 005°07'3 2.7
2014-Aug-27 11:33N 52°01' E 005°10'6 5.9
2014-Aug-27 10:33N 51°58' E 005°19'19 6.1
2014-Aug-27 07:27N 51°53' E 005°48'17 7.6
2014-Aug-27 05:09N 51°49' E 006°16'12 7.5
2014-Aug-27 03:33N 51°40' E 006°29'7 6.7
2014-Aug-27 02:33N 51°35' E 006°36'17 2.8
2014-Aug-26 20:23N 51°32' E 007°03'0 0.0
2014-Aug-26 19:29N 51°32' E 007°03'0 0.0
2014-Aug-26 17:22N 51°32' E 007°03'0 0.0
2014-Aug-26 16:22N 51°32' E 007°03'0 0.0
2014-Aug-26 15:27N 51°32' E 007°03'0 0.0
2014-Aug-26 14:30N 51°32' E 007°03'0 0.0
2014-Aug-26 13:31N 51°32' E 007°03'0 0.0
2014-Aug-26 12:33N 51°32' E 007°03'0 0.0
2014-Aug-26 11:33N 51°32' E 007°03'0 0.2
2014-Aug-26 10:33N 51°32' E 007°03'0 0.4
2014-Aug-26 09:34N 51°32' E 007°03'0 0.0
2014-Aug-26 08:34N 51°32' E 007°03'0 0.0
2014-Aug-26 07:34N 51°32' E 007°03'0 0.4
2014-Aug-26 06:33N 51°32' E 007°03'0 0.0
2014-Aug-26 05:32N 51°32' E 007°03'0 0.0
2014-Aug-26 04:33N 51°32' E 007°03'0 0.0
2014-Aug-26 03:33N 51°32' E 007°03'0 0.0
2014-Aug-26 02:33N 51°32' E 007°03'0 0.0
2014-Aug-26 01:33N 51°32' E 007°03'0 0.0
2014-Aug-26 00:33N 51°32' E 007°03'0 0.0
2014-Aug-25 23:33N 51°32' E 007°03'0 0.0
2014-Aug-25 22:33N 51°32' E 007°03'0 0.0
2014-Aug-25 21:33N 51°32' E 007°03'0 0.0
2014-Aug-25 20:33N 51°32' E 007°03'0 0.0
2014-Aug-25 19:33N 51°32' E 007°03'0 0.1
2014-Aug-25 18:33N 51°32' E 007°03'0 0.0
2014-Aug-25 17:34N 51°32' E 007°03'0 0.0
2014-Aug-25 16:33N 51°32' E 007°03'0 0.0
2014-Aug-25 15:33N 51°32' E 007°03'0 0.0
2014-Aug-25 14:33N 51°32' E 007°03'0 0.0
2014-Aug-25 13:33N 51°32' E 007°03'0 0.0
2014-Aug-25 12:33N 51°32' E 007°03'0 0.0
2014-Aug-25 11:31N 51°32' E 007°03'0 0.0
2014-Aug-25 10:33N 51°32' E 007°03'0 0.0
2014-Aug-25 09:33N 51°32' E 007°03'  

Dump ship's entire track history